createdAt,value
2017-03-22T00:00:01.362Z,935.66
2017-03-22T00:00:29.581Z,935.67
2017-03-22T00:00:57.613Z,935.66
2017-03-22T00:01:25.740Z,935.72
2017-03-22T00:01:53.799Z,935.65
2017-03-22T00:02:21.910Z,935.67
2017-03-22T00:02:50.167Z,935.65
2017-03-22T00:03:18.476Z,935.63
2017-03-22T00:03:47.002Z,935.65
2017-03-22T00:04:15.073Z,935.67
2017-03-22T00:04:43.069Z,935.63
2017-03-22T00:05:11.279Z,935.61
2017-03-22T00:05:39.544Z,935.62
2017-03-22T00:06:07.839Z,935.63
2017-03-22T00:06:35.959Z,935.63
2017-03-22T00:07:04.115Z,935.72
2017-03-22T00:07:32.232Z,935.68
2017-03-22T00:08:00.346Z,935.69
2017-03-22T00:08:28.487Z,935.66
2017-03-22T00:08:56.710Z,935.67
2017-03-22T00:09:24.764Z,935.65
2017-03-22T00:09:53.048Z,935.76
2017-03-22T00:10:21.205Z,935.64
2017-03-22T00:10:49.476Z,935.69
2017-03-22T00:11:17.724Z,935.64
2017-03-22T00:11:45.963Z,935.63
2017-03-22T00:12:14.110Z,935.66
2017-03-22T00:12:42.246Z,935.67
2017-03-22T00:13:10.479Z,935.72
2017-03-22T00:13:38.745Z,935.7
2017-03-22T00:14:07.056Z,935.68
2017-03-22T00:14:35.027Z,935.68
2017-03-22T00:15:02.988Z,935.75
2017-03-22T00:15:31.235Z,935.71
2017-03-22T00:15:59.435Z,935.74
2017-03-22T00:16:27.633Z,935.75
2017-03-22T00:16:55.791Z,935.73
2017-03-22T00:17:23.867Z,935.74
2017-03-22T00:17:52.132Z,935.77
2017-03-22T00:18:20.287Z,935.74
2017-03-22T00:18:48.565Z,935.77
2017-03-22T00:19:16.744Z,935.75
2017-03-22T00:19:44.991Z,935.77
2017-03-22T00:20:13.245Z,935.74
2017-03-22T00:20:41.497Z,935.77
2017-03-22T00:21:09.639Z,935.75
2017-03-22T00:21:37.918Z,935.79
2017-03-22T00:22:06.147Z,935.81
2017-03-22T00:22:34.372Z,935.75
2017-03-22T00:23:02.358Z,935.76
2017-03-22T00:23:30.508Z,935.79
2017-03-22T00:23:58.851Z,935.78
2017-03-22T00:24:26.903Z,935.79
2017-03-22T00:24:55.128Z,935.73
2017-03-22T00:25:23.335Z,935.83
2017-03-22T00:25:51.408Z,935.77
2017-03-22T00:26:19.511Z,935.74
2017-03-22T00:26:47.697Z,935.72
2017-03-22T00:27:15.845Z,935.73
2017-03-22T00:27:44.032Z,935.75
2017-03-22T00:28:12.285Z,935.77
2017-03-22T00:28:40.446Z,935.75
2017-03-22T00:29:08.633Z,935.72
2017-03-22T00:29:36.887Z,935.69
2017-03-22T00:30:05.060Z,935.72
2017-03-22T00:30:33.272Z,935.74
2017-03-22T00:31:01.567Z,935.67
2017-03-22T00:31:29.878Z,935.69
2017-03-22T00:31:57.997Z,935.68
2017-03-22T00:32:26.137Z,935.72
2017-03-22T00:32:54.331Z,935.75
2017-03-22T00:33:22.485Z,935.77
2017-03-22T00:33:50.748Z,935.72
2017-03-22T00:34:18.985Z,935.69
2017-03-22T00:34:47.162Z,935.69
2017-03-22T00:35:15.344Z,935.66
2017-03-22T00:35:43.467Z,935.7
2017-03-22T00:36:11.542Z,935.67
2017-03-22T00:36:39.888Z,935.71
2017-03-22T00:37:08.054Z,935.68
2017-03-22T00:37:36.273Z,935.68
2017-03-22T00:38:04.453Z,935.71
2017-03-22T00:38:32.670Z,935.76
2017-03-22T00:39:00.899Z,935.8
2017-03-22T00:39:28.846Z,935.76
2017-03-22T00:39:57.063Z,935.72
2017-03-22T00:40:25.291Z,935.7
2017-03-22T00:40:53.512Z,935.71
2017-03-22T00:41:21.777Z,935.74
2017-03-22T00:41:49.803Z,935.82
2017-03-22T00:42:17.964Z,935.83
2017-03-22T00:42:46.178Z,935.81
2017-03-22T00:43:14.392Z,935.83
2017-03-22T00:43:42.528Z,935.78
2017-03-22T00:44:10.820Z,935.84
2017-03-22T00:44:39.098Z,935.8
2017-03-22T00:45:07.305Z,935.82
2017-03-22T00:45:35.429Z,935.87
2017-03-22T00:46:03.514Z,935.94
2017-03-22T00:46:31.598Z,935.93
2017-03-22T00:46:59.773Z,935.85
2017-03-22T00:47:27.900Z,935.86
2017-03-22T00:47:56.143Z,935.86
2017-03-22T00:48:24.308Z,935.85
2017-03-22T00:48:52.547Z,935.84
2017-03-22T00:49:20.713Z,935.86
2017-03-22T00:49:49.025Z,936.03
2017-03-22T00:50:17.134Z,935.9
2017-03-22T00:50:45.268Z,935.8
2017-03-22T00:51:13.508Z,935.84
2017-03-22T00:51:41.537Z,935.84
2017-03-22T00:52:09.814Z,935.84
2017-03-22T00:52:38.053Z,935.85
2017-03-22T00:53:06.281Z,935.87
2017-03-22T00:53:34.548Z,935.84
2017-03-22T00:54:02.879Z,935.84
2017-03-22T00:54:31.126Z,935.83
2017-03-22T00:54:59.309Z,935.79
2017-03-22T00:55:27.460Z,935.85
2017-03-22T00:55:55.659Z,935.81
2017-03-22T00:56:23.908Z,935.81
2017-03-22T00:56:52.158Z,935.89
2017-03-22T00:57:20.204Z,935.79
2017-03-22T00:57:48.425Z,935.82
2017-03-22T00:58:16.632Z,935.83
2017-03-22T00:58:44.820Z,935.86
2017-03-22T00:59:13.013Z,935.87
2017-03-22T00:59:41.260Z,935.89
2017-03-22T01:00:09.397Z,935.85
2017-03-22T01:00:37.658Z,935.85
2017-03-22T01:01:05.851Z,935.87
2017-03-22T01:01:34.180Z,935.88
2017-03-22T01:02:02.337Z,935.86
2017-03-22T01:02:30.454Z,935.85
2017-03-22T01:02:58.600Z,935.83
2017-03-22T01:03:26.736Z,935.8
2017-03-22T01:03:54.806Z,935.89
2017-03-22T01:04:23.059Z,935.8
2017-03-22T01:04:51.228Z,935.82
2017-03-22T01:05:19.365Z,935.79
2017-03-22T01:05:47.609Z,935.75
2017-03-22T01:06:15.717Z,935.72
2017-03-22T01:06:43.749Z,935.74
2017-03-22T01:07:11.960Z,935.72
2017-03-22T01:07:40.133Z,935.73
2017-03-22T01:08:08.387Z,935.66
2017-03-22T01:08:36.627Z,935.61
2017-03-22T01:09:04.966Z,935.63
2017-03-22T01:09:33.020Z,935.6
2017-03-22T01:10:01.187Z,935.64
2017-03-22T01:10:29.414Z,935.58
2017-03-22T01:10:57.695Z,935.63
2017-03-22T01:11:25.890Z,935.61
2017-03-22T01:11:54.139Z,935.66
2017-03-22T01:12:22.282Z,935.64
2017-03-22T01:12:50.490Z,935.69
2017-03-22T01:13:18.753Z,935.65
2017-03-22T01:13:46.968Z,935.65
2017-03-22T01:14:15.128Z,935.66
2017-03-22T01:14:43.239Z,935.59
2017-03-22T01:15:11.489Z,935.57
2017-03-22T01:15:39.680Z,935.61
2017-03-22T01:16:07.824Z,935.58
2017-03-22T01:16:35.916Z,935.57
2017-03-22T01:17:04.132Z,935.56
2017-03-22T01:17:32.397Z,935.54
2017-03-22T01:18:00.547Z,935.55
2017-03-22T01:18:28.792Z,935.55
2017-03-22T01:18:56.935Z,935.52
2017-03-22T01:19:25.277Z,935.54
2017-03-22T01:19:53.405Z,935.49
2017-03-22T01:20:21.500Z,935.51
2017-03-22T01:20:49.732Z,935.49
2017-03-22T01:21:17.686Z,935.49
2017-03-22T01:21:45.811Z,935.45
2017-03-22T01:22:14.031Z,935.4
2017-03-22T01:22:42.256Z,935.44
2017-03-22T01:23:10.471Z,935.45
2017-03-22T01:23:38.700Z,935.47
2017-03-22T01:24:06.999Z,935.46
2017-03-22T01:24:35.250Z,935.44
2017-03-22T01:25:03.324Z,935.43
2017-03-22T01:25:31.472Z,935.48
2017-03-22T01:25:59.717Z,935.43
2017-03-22T01:26:27.984Z,935.42
2017-03-22T01:26:56.256Z,935.46
2017-03-22T01:27:24.505Z,935.41
2017-03-22T01:27:52.611Z,935.39
2017-03-22T01:28:20.773Z,935.4
2017-03-22T01:28:49.021Z,935.37
2017-03-22T01:29:17.203Z,935.47
2017-03-22T01:29:45.268Z,935.35
2017-03-22T01:30:13.421Z,935.33
2017-03-22T01:30:41.573Z,935.39
2017-03-22T01:31:09.705Z,935.32
2017-03-22T01:31:37.910Z,935.3
2017-03-22T01:32:06.005Z,935.33
2017-03-22T01:32:34.174Z,935.31
2017-03-22T01:33:02.231Z,935.29
2017-03-22T01:33:30.354Z,935.31
2017-03-22T01:33:58.577Z,935.27
2017-03-22T01:34:26.885Z,935.28
2017-03-22T01:34:55.132Z,935.34
2017-03-22T01:35:23.362Z,935.28
2017-03-22T01:35:51.565Z,935.31
2017-03-22T01:36:19.751Z,935.31
2017-03-22T01:36:47.952Z,935.29
2017-03-22T01:37:15.942Z,935.31
2017-03-22T01:37:44.150Z,935.32
2017-03-22T01:38:12.360Z,935.33
2017-03-22T01:38:40.509Z,935.34
2017-03-22T01:39:08.569Z,935.36
2017-03-22T01:39:36.752Z,935.38
2017-03-22T01:40:04.825Z,935.4
2017-03-22T01:40:32.872Z,935.35
2017-03-22T01:41:01.091Z,935.39
2017-03-22T01:41:29.145Z,935.4
2017-03-22T01:41:57.270Z,935.33
2017-03-22T01:42:25.412Z,935.43
2017-03-22T01:42:53.579Z,935.35
2017-03-22T01:43:21.807Z,935.37
2017-03-22T01:43:49.837Z,935.38
2017-03-22T01:44:18.303Z,935.39
2017-03-22T01:44:46.563Z,935.39
2017-03-22T01:45:14.810Z,935.45
2017-03-22T01:45:42.916Z,935.43
2017-03-22T01:46:11.090Z,935.44
2017-03-22T01:46:39.266Z,935.43
2017-03-22T01:47:07.410Z,935.39
2017-03-22T01:47:35.652Z,935.4
2017-03-22T01:48:03.906Z,935.48
2017-03-22T01:48:31.959Z,935.43
2017-03-22T01:49:00.106Z,935.41
2017-03-22T01:49:28.343Z,935.4
2017-03-22T01:49:56.254Z,935.4
2017-03-22T01:50:24.327Z,935.43
2017-03-22T01:50:52.545Z,935.43
2017-03-22T01:51:20.770Z,935.39
2017-03-22T01:51:49.035Z,935.41
2017-03-22T01:52:17.275Z,935.44
2017-03-22T01:52:45.357Z,935.44
2017-03-22T01:53:13.541Z,935.5
2017-03-22T01:53:41.681Z,935.48
2017-03-22T01:54:09.918Z,935.48
2017-03-22T01:54:38.058Z,935.49
2017-03-22T01:55:06.181Z,935.5
2017-03-22T01:55:34.294Z,935.52
2017-03-22T01:56:02.585Z,935.51
2017-03-22T01:56:30.725Z,935.51
2017-03-22T01:56:58.942Z,935.57
2017-03-22T01:57:27.174Z,935.54
2017-03-22T01:57:55.145Z,935.5
2017-03-22T01:58:23.374Z,935.52
2017-03-22T01:58:51.487Z,935.5
2017-03-22T01:59:19.750Z,935.47
2017-03-22T01:59:47.973Z,935.47
2017-03-22T02:00:16.085Z,935.49
2017-03-22T02:00:44.351Z,935.43
2017-03-22T02:01:12.517Z,935.44
2017-03-22T02:01:40.670Z,935.47
2017-03-22T02:02:08.916Z,935.48
2017-03-22T02:02:37.120Z,935.56
2017-03-22T02:03:05.369Z,935.44
2017-03-22T02:03:33.538Z,935.4
2017-03-22T02:04:01.877Z,935.37
2017-03-22T02:04:30.062Z,935.38
2017-03-22T02:04:58.363Z,935.43
2017-03-22T02:05:26.507Z,935.42
2017-03-22T02:05:54.664Z,935.44
2017-03-22T02:06:22.774Z,935.39
2017-03-22T02:06:51.033Z,935.38
2017-03-22T02:07:19.309Z,935.45
2017-03-22T02:07:47.438Z,935.44
2017-03-22T02:08:15.657Z,935.44
2017-03-22T02:08:43.708Z,935.46
2017-03-22T02:09:11.814Z,935.42
2017-03-22T02:09:40.063Z,935.4
2017-03-22T02:10:08.338Z,935.44
2017-03-22T02:10:36.566Z,935.44
2017-03-22T02:11:04.791Z,935.34
2017-03-22T02:11:33.049Z,935.42
2017-03-22T02:12:01.343Z,935.4
2017-03-22T02:12:29.401Z,935.43
2017-03-22T02:12:57.691Z,935.46
2017-03-22T02:13:25.863Z,935.44
2017-03-22T02:13:53.880Z,935.5
2017-03-22T02:14:22.168Z,935.5
2017-03-22T02:14:50.122Z,935.45
2017-03-22T02:15:18.186Z,935.49
2017-03-22T02:15:46.331Z,935.47
2017-03-22T02:16:14.623Z,935.52
2017-03-22T02:16:42.771Z,935.52
2017-03-22T02:17:11.008Z,935.44
2017-03-22T02:17:39.153Z,935.47
2017-03-22T02:18:07.434Z,935.5
2017-03-22T02:18:35.751Z,935.48
2017-03-22T02:19:04.050Z,935.47
2017-03-22T02:19:32.298Z,935.46
2017-03-22T02:20:00.580Z,935.49
2017-03-22T02:20:28.745Z,935.46
2017-03-22T02:20:56.771Z,935.5
2017-03-22T02:21:24.935Z,935.49
2017-03-22T02:21:52.975Z,935.5
2017-03-22T02:22:21.137Z,935.53
2017-03-22T02:22:49.331Z,935.51
2017-03-22T02:23:17.571Z,935.52
2017-03-22T02:23:45.798Z,935.51
2017-03-22T02:24:14.099Z,935.54
2017-03-22T02:24:42.511Z,935.55
2017-03-22T02:25:10.763Z,935.57
2017-03-22T02:25:39.007Z,935.51
2017-03-22T02:26:07.196Z,935.53
2017-03-22T02:26:35.360Z,935.46
2017-03-22T02:27:03.513Z,935.57
2017-03-22T02:27:31.667Z,935.51
2017-03-22T02:27:59.870Z,935.58
2017-03-22T02:28:28.080Z,935.58
2017-03-22T02:28:56.310Z,935.53
2017-03-22T02:29:24.493Z,935.57
2017-03-22T02:29:52.674Z,935.6
2017-03-22T02:30:20.936Z,935.57
2017-03-22T02:30:49.172Z,935.63
2017-03-22T02:31:17.336Z,935.59
2017-03-22T02:31:45.464Z,935.58
2017-03-22T02:32:13.578Z,935.56
2017-03-22T02:32:41.799Z,935.57
2017-03-22T02:33:09.971Z,935.55
2017-03-22T02:33:38.254Z,935.53
2017-03-22T02:34:06.318Z,935.55
2017-03-22T02:34:34.652Z,935.55
2017-03-22T02:35:02.808Z,935.59
2017-03-22T02:35:30.929Z,935.61
2017-03-22T02:35:59.134Z,935.53
2017-03-22T02:36:27.480Z,935.53
2017-03-22T02:36:55.727Z,935.5
2017-03-22T02:37:23.713Z,935.57
2017-03-22T02:37:51.873Z,935.55
2017-03-22T02:38:20.143Z,935.58
2017-03-22T02:38:48.243Z,935.56
2017-03-22T02:39:16.369Z,935.58
2017-03-22T02:39:44.714Z,935.58
2017-03-22T02:40:12.851Z,935.61
2017-03-22T02:40:41.098Z,935.58
2017-03-22T02:41:09.319Z,935.55
2017-03-22T02:41:37.398Z,935.56
2017-03-22T02:42:05.649Z,935.62
2017-03-22T02:42:33.816Z,935.62
2017-03-22T02:43:02.032Z,935.64
2017-03-22T02:43:30.140Z,935.63
2017-03-22T02:43:58.359Z,935.61
2017-03-22T02:44:26.540Z,935.62
2017-03-22T02:44:54.831Z,935.65
2017-03-22T02:45:22.987Z,935.64
2017-03-22T02:45:51.160Z,935.62
2017-03-22T02:46:19.347Z,935.63
2017-03-22T02:46:47.587Z,935.67
2017-03-22T02:47:15.809Z,935.64
2017-03-22T02:47:43.967Z,935.58
2017-03-22T02:48:12.185Z,935.62
2017-03-22T02:48:40.394Z,935.66
2017-03-22T02:49:08.652Z,935.6
2017-03-22T02:49:36.827Z,935.69
2017-03-22T02:50:05.029Z,935.68
2017-03-22T02:50:33.333Z,935.67
2017-03-22T02:51:01.488Z,935.63
2017-03-22T02:51:29.646Z,935.66
2017-03-22T02:51:57.922Z,935.72
2017-03-22T02:52:25.932Z,935.73
2017-03-22T02:52:54.018Z,935.68
2017-03-22T02:53:22.183Z,935.67
2017-03-22T02:53:50.441Z,935.64
2017-03-22T02:54:18.580Z,935.75
2017-03-22T02:54:46.728Z,935.61
2017-03-22T02:55:14.998Z,935.66
2017-03-22T02:55:43.154Z,935.64
2017-03-22T02:56:11.410Z,935.61
2017-03-22T02:56:39.647Z,935.64
2017-03-22T02:57:07.925Z,935.58
2017-03-22T02:57:36.117Z,935.6
2017-03-22T02:58:04.370Z,935.59
2017-03-22T02:58:32.639Z,935.64
2017-03-22T02:59:00.913Z,935.59
2017-03-22T02:59:29.043Z,935.68
2017-03-22T02:59:57.139Z,935.7
2017-03-22T03:00:25.066Z,935.59
2017-03-22T03:00:53.274Z,935.64
2017-03-22T03:01:21.425Z,935.7
2017-03-22T03:01:49.674Z,935.61
2017-03-22T03:02:17.824Z,935.65
2017-03-22T03:02:46.040Z,935.65
2017-03-22T03:03:14.250Z,935.63
2017-03-22T03:03:42.369Z,935.67
2017-03-22T03:04:10.488Z,935.64
2017-03-22T03:04:38.626Z,935.63
2017-03-22T03:05:06.868Z,935.6
2017-03-22T03:05:34.853Z,935.64
2017-03-22T03:06:02.973Z,935.63
2017-03-22T03:06:31.124Z,935.62
2017-03-22T03:06:59.377Z,935.64
2017-03-22T03:07:27.531Z,935.68
2017-03-22T03:07:55.635Z,935.64
2017-03-22T03:08:23.712Z,935.63
2017-03-22T03:08:52.007Z,935.61
2017-03-22T03:09:20.190Z,935.61
2017-03-22T03:09:48.385Z,935.62
2017-03-22T03:10:16.710Z,935.66
2017-03-22T03:10:44.778Z,935.61
2017-03-22T03:11:12.945Z,935.66
2017-03-22T03:11:40.914Z,935.64
2017-03-22T03:12:09.053Z,935.64
2017-03-22T03:12:37.268Z,935.62
2017-03-22T03:13:05.482Z,935.63
2017-03-22T03:13:33.726Z,935.58
2017-03-22T03:14:01.907Z,935.61
2017-03-22T03:14:30.084Z,935.61
2017-03-22T03:14:58.291Z,935.59
2017-03-22T03:15:26.520Z,935.6
2017-03-22T03:15:54.781Z,935.58
2017-03-22T03:16:23.037Z,935.67
2017-03-22T03:16:51.243Z,935.62
2017-03-22T03:17:19.457Z,935.64
2017-03-22T03:17:47.652Z,935.66
2017-03-22T03:18:15.802Z,935.68
2017-03-22T03:18:44.021Z,935.66
2017-03-22T03:19:12.158Z,935.72
2017-03-22T03:19:40.379Z,935.65
2017-03-22T03:20:08.741Z,935.65
2017-03-22T03:20:36.952Z,935.64
2017-03-22T03:21:05.120Z,935.67
2017-03-22T03:21:33.412Z,935.72
2017-03-22T03:22:01.626Z,935.68
2017-03-22T03:22:29.855Z,935.72
2017-03-22T03:22:58.005Z,935.66
2017-03-22T03:23:26.156Z,935.68
2017-03-22T03:23:54.196Z,935.65
2017-03-22T03:24:22.246Z,935.71
2017-03-22T03:24:50.483Z,935.64
2017-03-22T03:25:18.731Z,935.66
2017-03-22T03:25:46.878Z,935.66
2017-03-22T03:26:15.163Z,935.63
2017-03-22T03:26:43.396Z,935.65
2017-03-22T03:27:11.645Z,935.62
2017-03-22T03:27:39.877Z,935.6
2017-03-22T03:28:08.022Z,935.62
2017-03-22T03:28:36.285Z,935.64
2017-03-22T03:29:04.547Z,935.59
2017-03-22T03:29:32.800Z,935.61
2017-03-22T03:30:01.039Z,935.6
2017-03-22T03:30:29.248Z,935.58
2017-03-22T03:30:57.546Z,935.6
2017-03-22T03:31:25.699Z,935.59
2017-03-22T03:31:53.917Z,935.58
2017-03-22T03:32:22.065Z,935.6
2017-03-22T03:32:50.268Z,935.62
2017-03-22T03:33:18.427Z,935.58
2017-03-22T03:33:46.639Z,935.61
2017-03-22T03:34:14.805Z,935.57
2017-03-22T03:34:42.835Z,935.58
2017-03-22T03:35:11.241Z,935.58
2017-03-22T03:35:39.373Z,935.55
2017-03-22T03:36:07.443Z,935.57
2017-03-22T03:36:35.580Z,935.57
2017-03-22T03:37:03.890Z,935.6
2017-03-22T03:37:32.147Z,935.65
2017-03-22T03:38:00.381Z,935.66
2017-03-22T03:38:28.663Z,935.66
2017-03-22T03:38:56.872Z,935.65
2017-03-22T03:39:25.114Z,935.65
2017-03-22T03:39:53.363Z,935.61
2017-03-22T03:40:21.648Z,935.68
2017-03-22T03:40:49.883Z,935.65
2017-03-22T03:41:18.192Z,935.73
2017-03-22T03:41:46.318Z,935.67
2017-03-22T03:42:14.678Z,935.69
2017-03-22T03:42:42.961Z,935.7
2017-03-22T03:43:11.265Z,935.66
2017-03-22T03:43:39.536Z,935.7
2017-03-22T03:44:07.681Z,935.66
2017-03-22T03:44:36.008Z,935.66
2017-03-22T03:45:04.180Z,935.72
2017-03-22T03:45:32.578Z,935.65
2017-03-22T03:46:00.732Z,935.68
2017-03-22T03:46:28.777Z,935.66
2017-03-22T03:46:57.079Z,935.64
2017-03-22T03:47:25.351Z,935.65
2017-03-22T03:47:53.548Z,935.67
2017-03-22T03:48:21.783Z,935.62
2017-03-22T03:48:49.922Z,935.65
2017-03-22T03:49:17.976Z,935.65
2017-03-22T03:49:46.326Z,935.66
2017-03-22T03:50:14.699Z,935.63
2017-03-22T03:50:42.942Z,935.61
2017-03-22T03:51:10.937Z,935.66
2017-03-22T03:51:39.097Z,935.63
2017-03-22T03:52:07.211Z,935.58
2017-03-22T03:52:35.379Z,935.59
2017-03-22T03:53:03.657Z,935.56
2017-03-22T03:53:32.030Z,935.62
2017-03-22T03:54:00.196Z,935.59
2017-03-22T03:54:28.420Z,935.55
2017-03-22T03:54:56.618Z,935.57
2017-03-22T03:55:25.107Z,935.56
2017-03-22T03:55:53.382Z,935.56
2017-03-22T03:56:21.550Z,935.54
2017-03-22T03:56:49.815Z,935.52
2017-03-22T03:57:18.094Z,935.53
2017-03-22T03:57:46.222Z,935.52
2017-03-22T03:58:14.455Z,935.54
2017-03-22T03:58:42.656Z,935.52
2017-03-22T03:59:10.800Z,935.47
2017-03-22T03:59:38.986Z,935.51
2017-03-22T04:00:07.324Z,935.5
2017-03-22T04:00:35.467Z,935.53
2017-03-22T04:01:03.735Z,935.5
2017-03-22T04:01:31.995Z,935.53
2017-03-22T04:02:00.137Z,935.49
2017-03-22T04:02:28.310Z,935.47
2017-03-22T04:02:56.556Z,935.46
2017-03-22T04:03:24.929Z,935.51
2017-03-22T04:03:53.057Z,935.46
2017-03-22T04:04:21.308Z,935.47
2017-03-22T04:04:49.588Z,935.44
2017-03-22T04:05:17.953Z,935.42
2017-03-22T04:05:46.095Z,935.43
2017-03-22T04:06:14.296Z,935.41
2017-03-22T04:06:42.575Z,935.4
2017-03-22T04:07:10.651Z,935.42
2017-03-22T04:07:38.898Z,935.42
2017-03-22T04:08:07.279Z,935.42
2017-03-22T04:08:35.461Z,935.44
2017-03-22T04:09:03.611Z,935.4
2017-03-22T04:09:31.827Z,935.42
2017-03-22T04:10:00.160Z,935.4
2017-03-22T04:10:28.315Z,935.41
2017-03-22T04:10:56.732Z,935.42
2017-03-22T04:11:25.072Z,935.42
2017-03-22T04:11:53.221Z,935.44
2017-03-22T04:12:21.453Z,935.39
2017-03-22T04:12:49.635Z,935.39
2017-03-22T04:13:17.909Z,935.37
2017-03-22T04:13:46.150Z,935.37
2017-03-22T04:14:14.310Z,935.44
2017-03-22T04:14:42.600Z,935.4
2017-03-22T04:15:10.865Z,935.35
2017-03-22T04:15:39.256Z,935.4
2017-03-22T04:16:07.494Z,935.39
2017-03-22T04:16:35.654Z,935.41
2017-03-22T04:17:03.883Z,935.41
2017-03-22T04:17:32.139Z,935.37
2017-03-22T04:18:00.297Z,935.4
2017-03-22T04:18:28.472Z,935.38
2017-03-22T04:18:56.711Z,935.36
2017-03-22T04:19:24.849Z,935.35
2017-03-22T04:19:53.085Z,935.37
2017-03-22T04:20:21.310Z,935.38
2017-03-22T04:20:49.639Z,935.35
2017-03-22T04:21:17.888Z,935.32
2017-03-22T04:21:46.122Z,935.33
2017-03-22T04:22:14.383Z,935.34
2017-03-22T04:22:42.640Z,935.29
2017-03-22T04:23:10.830Z,935.33
2017-03-22T04:23:39.027Z,935.31
2017-03-22T04:24:07.241Z,935.3
2017-03-22T04:24:35.352Z,935.3
2017-03-22T04:25:03.478Z,935.29
2017-03-22T04:25:31.930Z,935.32
2017-03-22T04:26:00.238Z,935.31
2017-03-22T04:26:28.488Z,935.28
2017-03-22T04:26:56.751Z,935.31
2017-03-22T04:27:24.975Z,935.27
2017-03-22T04:27:53.220Z,935.24
2017-03-22T04:28:21.241Z,935.27
2017-03-22T04:28:49.510Z,935.24
2017-03-22T04:29:17.788Z,935.26
2017-03-22T04:29:46.063Z,935.23
2017-03-22T04:30:14.336Z,935.21
2017-03-22T04:30:42.638Z,935.2
2017-03-22T04:31:10.853Z,935.21
2017-03-22T04:31:39.135Z,935.16
2017-03-22T04:32:07.358Z,935.23
2017-03-22T04:32:35.513Z,935.24
2017-03-22T04:33:03.663Z,935.19
2017-03-22T04:33:31.861Z,935.18
2017-03-22T04:34:00.145Z,935.2
2017-03-22T04:34:28.305Z,935.17
2017-03-22T04:34:56.561Z,935.16
2017-03-22T04:35:24.814Z,935.15
2017-03-22T04:35:53.120Z,935.13
2017-03-22T04:36:21.228Z,935.13
2017-03-22T04:36:49.274Z,935.15
2017-03-22T04:37:17.318Z,935.15
2017-03-22T04:37:45.376Z,935.14
2017-03-22T04:38:13.598Z,935.15
2017-03-22T04:38:41.958Z,935.14
2017-03-22T04:39:10.215Z,935.14
2017-03-22T04:39:38.384Z,935.12
2017-03-22T04:40:06.783Z,935.12
2017-03-22T04:40:34.974Z,935.15
2017-03-22T04:41:03.365Z,935.12
2017-03-22T04:41:31.632Z,935.07
2017-03-22T04:41:59.889Z,935.08
2017-03-22T04:42:28.144Z,935.09
2017-03-22T04:42:56.312Z,935.07
2017-03-22T04:43:24.544Z,935.07
2017-03-22T04:43:52.823Z,935.06
2017-03-22T04:44:20.972Z,935.06
2017-03-22T04:44:49.138Z,935.03
2017-03-22T04:45:17.315Z,935.03
2017-03-22T04:45:45.497Z,935.04
2017-03-22T04:46:13.941Z,935.03
2017-03-22T04:46:42.154Z,935.04
2017-03-22T04:47:10.150Z,935.03
2017-03-22T04:47:38.312Z,935.01
2017-03-22T04:48:06.615Z,935.01
2017-03-22T04:48:34.881Z,934.98
2017-03-22T04:49:03.128Z,935.03
2017-03-22T04:49:31.270Z,935.01
2017-03-22T04:49:59.419Z,934.99
2017-03-22T04:50:27.646Z,935.02
2017-03-22T04:50:56.057Z,934.98
2017-03-22T04:51:24.229Z,934.99
2017-03-22T04:51:52.330Z,934.95
2017-03-22T04:52:20.578Z,934.98
2017-03-22T04:52:48.667Z,934.93
2017-03-22T04:53:16.929Z,934.89
2017-03-22T04:53:45.204Z,934.92
2017-03-22T04:54:13.427Z,934.99
2017-03-22T04:54:41.762Z,934.96
2017-03-22T04:55:09.927Z,934.93
2017-03-22T04:55:38.181Z,934.94
2017-03-22T04:56:06.273Z,934.92
2017-03-22T04:56:34.514Z,934.91
2017-03-22T04:57:02.587Z,934.9
2017-03-22T04:57:30.747Z,934.93
2017-03-22T04:57:58.892Z,934.91
2017-03-22T04:58:27.122Z,934.9
2017-03-22T04:58:55.403Z,934.86
2017-03-22T04:59:23.546Z,934.93
2017-03-22T04:59:51.744Z,934.93
2017-03-22T05:00:19.985Z,934.93
2017-03-22T05:00:48.133Z,934.92
2017-03-22T05:01:16.434Z,934.94
2017-03-22T05:01:44.684Z,934.89
2017-03-22T05:02:12.752Z,934.89
2017-03-22T05:02:40.896Z,934.9
2017-03-22T05:03:09.363Z,934.9
2017-03-22T05:03:37.503Z,934.88
2017-03-22T05:04:05.532Z,934.88
2017-03-22T05:04:33.570Z,934.87
2017-03-22T05:05:01.748Z,934.89
2017-03-22T05:05:29.971Z,934.84
2017-03-22T05:05:57.999Z,934.85
2017-03-22T05:06:26.434Z,934.85
2017-03-22T05:06:54.561Z,934.82
2017-03-22T05:07:22.817Z,934.82
2017-03-22T05:07:50.864Z,934.82
2017-03-22T05:08:19.175Z,934.8
2017-03-22T05:08:47.385Z,934.79
2017-03-22T05:09:15.390Z,934.79
2017-03-22T05:09:43.624Z,934.77
2017-03-22T05:10:11.775Z,934.77
2017-03-22T05:10:39.828Z,934.76
2017-03-22T05:11:08.327Z,934.77
2017-03-22T05:11:36.613Z,934.76
2017-03-22T05:12:04.746Z,934.76
2017-03-22T05:12:33.031Z,934.76
2017-03-22T05:13:01.320Z,934.79
2017-03-22T05:13:29.507Z,934.76
2017-03-22T05:13:57.741Z,934.78
2017-03-22T05:14:25.939Z,934.76
2017-03-22T05:14:54.178Z,934.76
2017-03-22T05:15:22.349Z,934.81
2017-03-22T05:15:50.470Z,934.82
2017-03-22T05:16:18.617Z,934.81
2017-03-22T05:16:46.972Z,934.83
2017-03-22T05:17:15.030Z,934.83
2017-03-22T05:17:43.257Z,934.85
2017-03-22T05:18:11.513Z,934.82
2017-03-22T05:18:39.701Z,934.82
2017-03-22T05:19:07.663Z,934.83
2017-03-22T05:19:35.824Z,934.84
2017-03-22T05:20:04.105Z,934.85
2017-03-22T05:20:32.242Z,934.83
2017-03-22T05:21:00.503Z,934.83
2017-03-22T05:21:28.751Z,934.84
2017-03-22T05:21:56.950Z,934.81
2017-03-22T05:22:25.197Z,934.82
2017-03-22T05:22:53.400Z,934.85
2017-03-22T05:23:21.501Z,934.84
2017-03-22T05:23:49.609Z,934.81
2017-03-22T05:24:17.831Z,934.83
2017-03-22T05:24:45.973Z,934.79
2017-03-22T05:25:14.089Z,934.85
2017-03-22T05:25:42.184Z,934.8
2017-03-22T05:26:10.596Z,934.79
2017-03-22T05:26:38.854Z,934.79
2017-03-22T05:27:07.073Z,934.82
2017-03-22T05:27:35.310Z,934.82
2017-03-22T05:28:03.392Z,934.82
2017-03-22T05:28:31.534Z,934.82
2017-03-22T05:28:59.655Z,934.82
2017-03-22T05:29:27.731Z,934.81
2017-03-22T05:29:55.950Z,934.82
2017-03-22T05:30:24.075Z,934.79
2017-03-22T05:30:52.266Z,934.79
2017-03-22T05:31:20.512Z,934.8
2017-03-22T05:31:48.666Z,934.78
2017-03-22T05:32:16.810Z,934.77
2017-03-22T05:32:44.999Z,934.76
2017-03-22T05:33:13.237Z,934.77
2017-03-22T05:33:41.239Z,934.79
2017-03-22T05:34:09.487Z,934.78
2017-03-22T05:34:37.653Z,934.77
2017-03-22T05:35:05.873Z,934.75
2017-03-22T05:35:34.040Z,934.74
2017-03-22T05:36:02.165Z,934.77
2017-03-22T05:36:30.464Z,934.75
2017-03-22T05:36:58.626Z,934.78
2017-03-22T05:37:26.885Z,934.78
2017-03-22T05:37:55.173Z,934.75
2017-03-22T05:38:23.443Z,934.77
2017-03-22T05:38:51.678Z,934.77
2017-03-22T05:39:19.904Z,934.78
2017-03-22T05:39:48.088Z,934.8
2017-03-22T05:40:16.341Z,934.78
2017-03-22T05:40:44.488Z,934.76
2017-03-22T05:41:12.615Z,934.73
2017-03-22T05:41:40.881Z,934.7
2017-03-22T05:42:09.086Z,934.71
2017-03-22T05:42:37.287Z,934.71
2017-03-22T05:43:05.410Z,934.68
2017-03-22T05:43:33.577Z,934.65
2017-03-22T05:44:01.528Z,934.66
2017-03-22T05:44:29.696Z,934.65
2017-03-22T05:44:57.760Z,934.61
2017-03-22T05:45:25.957Z,934.61
2017-03-22T05:45:54.205Z,934.61
2017-03-22T05:46:22.660Z,934.64
2017-03-22T05:46:50.857Z,934.61
2017-03-22T05:47:18.984Z,934.62
2017-03-22T05:47:47.076Z,934.62
2017-03-22T05:48:15.296Z,934.59
2017-03-22T05:48:43.453Z,934.6
2017-03-22T05:49:11.549Z,934.59
2017-03-22T05:49:39.598Z,934.57
2017-03-22T05:50:07.822Z,934.56
2017-03-22T05:50:36.006Z,934.54
2017-03-22T05:51:04.210Z,934.58
2017-03-22T05:51:32.529Z,934.59
2017-03-22T05:52:00.652Z,934.57
2017-03-22T05:52:28.723Z,934.6